createdAt,value
2018-03-16T00:00:23.334Z,46.30
2018-03-16T00:01:23.260Z,47.20
2018-03-16T00:02:23.211Z,45.30
2018-03-16T00:03:23.160Z,46.90
2018-03-16T00:04:23.109Z,46.60
2018-03-16T00:05:23.085Z,46.00
2018-03-16T00:06:23.013Z,45.40
2018-03-16T00:07:22.964Z,44.90
2018-03-16T00:08:22.912Z,47.00
2018-03-16T00:09:22.861Z,48.60
2018-03-16T00:10:22.838Z,47.90
2018-03-16T00:11:22.761Z,47.40
2018-03-16T00:12:22.713Z,47.70
2018-03-16T00:13:22.668Z,46.00
2018-03-16T00:14:22.610Z,48.30
2018-03-16T00:15:22.586Z,47.60
2018-03-16T00:16:22.515Z,47.40
2018-03-16T00:17:22.468Z,48.50
2018-03-16T00:18:22.412Z,49.80
2018-03-16T00:19:22.366Z,49.40
2018-03-16T00:20:22.337Z,46.50
2018-03-16T00:21:22.260Z,49.10
2018-03-16T00:22:22.209Z,48.40
2018-03-16T00:23:22.162Z,47.50
2018-03-16T00:24:22.113Z,48.30
2018-03-16T00:25:22.094Z,47.50
2018-03-16T00:26:22.015Z,48.00
2018-03-16T00:27:21.992Z,50.20
2018-03-16T00:28:21.914Z,47.90
2018-03-16T00:29:21.861Z,48.40
2018-03-16T00:30:21.838Z,48.40
2018-03-16T00:31:21.766Z,49.30
2018-03-16T00:32:21.722Z,48.60
2018-03-16T00:33:21.664Z,51.20
2018-03-16T00:34:21.612Z,49.40
2018-03-16T00:35:21.586Z,48.10
2018-03-16T00:36:21.513Z,48.60
2018-03-16T00:37:21.465Z,48.30
2018-03-16T00:38:21.415Z,48.20
2018-03-16T00:39:21.363Z,49.20
2018-03-16T00:40:21.335Z,48.20
2018-03-16T00:41:21.268Z,49.00
2018-03-16T00:42:21.213Z,49.50
2018-03-16T00:43:21.162Z,50.00
2018-03-16T00:44:21.114Z,50.20
2018-03-16T00:45:21.089Z,50.60
2018-03-16T00:46:21.013Z,49.20
2018-03-16T00:47:20.963Z,48.70
2018-03-16T00:48:20.915Z,49.30
2018-03-16T00:49:20.864Z,51.20
2018-03-16T00:50:20.838Z,50.30
2018-03-16T00:51:20.764Z,46.80
2018-03-16T00:52:20.712Z,51.00
2018-03-16T00:53:20.662Z,51.60
2018-03-16T00:54:20.614Z,49.60
2018-03-16T00:55:20.584Z,50.00
2018-03-16T00:56:20.522Z,50.00
2018-03-16T00:57:20.461Z,52.60
2018-03-16T00:58:20.433Z,48.60
2018-03-16T00:59:20.364Z,50.10
2018-03-16T01:00:20.340Z,50.90
2018-03-16T01:01:20.282Z,48.60
2018-03-16T01:02:20.221Z,50.20
2018-03-16T01:03:20.164Z,49.90
2018-03-16T01:04:20.120Z,52.00
2018-03-16T01:05:20.092Z,51.90
2018-03-16T01:06:20.013Z,52.10
2018-03-16T01:07:19.962Z,51.10
2018-03-16T01:08:19.914Z,50.80
2018-03-16T01:09:19.866Z,52.40
2018-03-16T01:10:19.837Z,48.80
2018-03-16T01:11:19.764Z,49.90
2018-03-16T01:12:19.714Z,53.50
2018-03-16T01:13:19.664Z,53.80
2018-03-16T01:14:19.628Z,52.00
2018-03-16T01:15:19.591Z,50.20
2018-03-16T01:16:19.513Z,51.00
2018-03-16T01:17:19.472Z,52.30
2018-03-16T01:18:19.414Z,53.50
2018-03-16T01:19:19.363Z,50.60
2018-03-16T01:20:19.312Z,53.30
2018-03-16T01:21:19.287Z,51.30
2018-03-16T01:22:19.211Z,50.20
2018-03-16T01:23:19.164Z,50.30
2018-03-16T01:24:19.122Z,51.60
2018-03-16T01:25:19.063Z,51.70
2018-03-16T01:26:19.035Z,51.00
2018-03-16T01:27:18.964Z,50.10
2018-03-16T01:28:18.912Z,53.80
2018-03-16T01:29:18.863Z,51.00
2018-03-16T01:30:18.813Z,51.80
2018-03-16T01:31:18.793Z,51.80
2018-03-16T01:32:18.714Z,50.30
2018-03-16T01:33:18.662Z,54.20
2018-03-16T01:34:18.613Z,50.90
2018-03-16T01:35:18.570Z,53.30
2018-03-16T01:36:18.544Z,53.40
2018-03-16T01:37:18.464Z,52.70
2018-03-16T01:38:18.411Z,52.10
2018-03-16T01:39:18.364Z,54.30
2018-03-16T01:40:18.314Z,54.60
2018-03-16T01:41:18.285Z,52.20
2018-03-16T01:42:18.214Z,53.20
2018-03-16T01:43:18.163Z,52.60
2018-03-16T01:44:18.116Z,52.40
2018-03-16T01:45:18.067Z,53.70
2018-03-16T01:46:18.041Z,52.30
2018-03-16T01:47:17.965Z,52.10
2018-03-16T01:48:17.915Z,53.30
2018-03-16T01:49:17.868Z,56.10
2018-03-16T01:50:17.817Z,52.60
2018-03-16T01:51:17.794Z,51.10
2018-03-16T01:52:17.724Z,51.20
2018-03-16T01:53:17.668Z,55.70
2018-03-16T01:54:17.615Z,52.60
2018-03-16T01:55:17.574Z,53.90
2018-03-16T01:56:17.543Z,53.70
2018-03-16T01:57:17.476Z,56.80
2018-03-16T01:58:17.419Z,54.00
2018-03-16T01:59:17.368Z,55.80
2018-03-16T02:00:17.318Z,52.90
2018-03-16T02:01:17.291Z,54.40
2018-03-16T02:02:17.216Z,54.30
2018-03-16T02:03:17.169Z,53.40
2018-03-16T02:04:17.117Z,54.10
2018-03-16T02:05:17.070Z,54.40
2018-03-16T02:06:17.040Z,53.70
2018-03-16T02:07:16.971Z,53.40
2018-03-16T02:08:16.920Z,54.90
2018-03-16T02:09:16.867Z,53.40
2018-03-16T02:10:16.816Z,55.60
2018-03-16T02:11:16.808Z,55.70
2018-03-16T02:12:16.720Z,54.30
2018-03-16T02:13:16.671Z,52.70
2018-03-16T02:14:16.619Z,55.90
2018-03-16T02:15:16.568Z,54.00
2018-03-16T02:16:16.548Z,54.00
2018-03-16T02:17:16.471Z,52.70
2018-03-16T02:18:16.419Z,54.30
2018-03-16T02:19:16.368Z,57.10
2018-03-16T02:20:16.319Z,54.90
2018-03-16T02:21:16.299Z,54.30
2018-03-16T02:22:16.220Z,55.60
2018-03-16T02:23:16.173Z,53.10
2018-03-16T02:24:16.125Z,55.10
2018-03-16T02:25:16.074Z,54.70
2018-03-16T02:26:16.046Z,55.00
2018-03-16T02:27:15.974Z,54.70
2018-03-16T02:28:15.923Z,56.20
2018-03-16T02:29:15.873Z,53.80
2018-03-16T02:30:15.828Z,54.90
2018-03-16T02:31:15.796Z,55.00
2018-03-16T02:32:15.725Z,55.30
2018-03-16T02:33:15.676Z,56.40
2018-03-16T02:34:15.625Z,54.10
2018-03-16T02:35:15.577Z,54.60
2018-03-16T02:36:15.550Z,55.70
2018-03-16T02:37:15.475Z,55.70
2018-03-16T02:38:15.429Z,56.20
2018-03-16T02:39:15.380Z,55.30
2018-03-16T02:40:15.328Z,56.50
2018-03-16T02:41:15.300Z,55.30
2018-03-16T02:42:15.236Z,54.90
2018-03-16T02:43:15.199Z,54.30
2018-03-16T02:44:15.133Z,56.40
2018-03-16T02:45:15.075Z,55.00
2018-03-16T02:46:15.064Z,57.20
2018-03-16T02:47:14.984Z,56.20
2018-03-16T02:48:14.929Z,57.10
2018-03-16T02:49:14.881Z,56.20
2018-03-16T02:50:14.828Z,55.70
2018-03-16T02:51:14.804Z,56.00
2018-03-16T02:52:14.734Z,56.20
2018-03-16T02:53:14.682Z,55.00
2018-03-16T02:54:14.632Z,56.40
2018-03-16T02:55:14.582Z,55.10
2018-03-16T02:56:14.557Z,56.30
2018-03-16T02:57:14.480Z,56.20
2018-03-16T02:58:14.435Z,55.80
2018-03-16T02:59:14.380Z,55.40
2018-03-16T03:00:14.335Z,56.80
2018-03-16T03:01:14.304Z,56.40
2018-03-16T03:02:14.234Z,56.90
2018-03-16T03:03:14.187Z,57.50
2018-03-16T03:04:14.132Z,57.50
2018-03-16T03:05:14.084Z,55.80
2018-03-16T03:06:14.057Z,55.80
2018-03-16T03:07:13.986Z,56.00
2018-03-16T03:08:13.932Z,57.50
2018-03-16T03:09:13.882Z,60.20
2018-03-16T03:10:13.833Z,57.50
2018-03-16T03:11:13.813Z,58.30
2018-03-16T03:12:13.756Z,56.90
2018-03-16T03:13:13.763Z,57.50
2018-03-16T03:14:13.634Z,57.30
2018-03-16T03:15:13.582Z,60.70
2018-03-16T03:16:13.560Z,57.20
2018-03-16T03:17:13.484Z,58.50
2018-03-16T03:18:13.440Z,58.60
2018-03-16T03:19:13.383Z,58.20
2018-03-16T03:20:13.343Z,58.30
2018-03-16T03:21:13.310Z,59.90
2018-03-16T03:22:13.236Z,59.10
2018-03-16T03:23:13.186Z,57.50
2018-03-16T03:24:13.134Z,60.20
2018-03-16T03:25:13.087Z,60.80
2018-03-16T03:26:13.059Z,60.30
2018-03-16T03:27:12.992Z,60.40
2018-03-16T03:28:12.938Z,60.80
2018-03-16T03:29:12.887Z,60.30
2018-03-16T03:30:12.839Z,60.30
2018-03-16T03:31:12.815Z,62.10
2018-03-16T03:32:12.736Z,59.10
2018-03-16T03:33:12.686Z,60.60
2018-03-16T03:34:12.658Z,58.80
2018-03-16T03:35:12.589Z,59.90
2018-03-16T03:36:12.564Z,61.60
2018-03-16T03:37:12.486Z,62.70
2018-03-16T03:38:12.438Z,61.10
2018-03-16T03:39:12.390Z,65.30
2018-03-16T03:40:12.339Z,60.90
2018-03-16T03:41:12.324Z,64.00
2018-03-16T03:42:12.238Z,65.90
2018-03-16T03:43:12.191Z,66.80
2018-03-16T03:44:12.138Z,67.60
2018-03-16T03:45:12.089Z,69.60
2018-03-16T03:46:12.061Z,65.80
2018-03-16T03:47:11.989Z,67.20
2018-03-16T03:48:11.940Z,66.40
2018-03-16T03:49:11.887Z,68.50
2018-03-16T03:50:11.840Z,68.00
2018-03-16T03:51:11.811Z,69.50
2018-03-16T03:52:11.739Z,69.80
2018-03-16T03:53:11.687Z,65.80
2018-03-16T03:54:11.640Z,63.00
2018-03-16T03:55:11.589Z,66.60
2018-03-16T03:56:11.563Z,69.70
2018-03-16T03:57:11.490Z,64.70
2018-03-16T03:58:11.438Z,66.30
2018-03-16T03:59:11.554Z,67.20
2018-03-16T04:00:11.342Z,68.00
2018-03-16T04:01:11.327Z,71.20
2018-03-16T04:02:11.241Z,68.60
2018-03-16T04:03:11.193Z,71.60
2018-03-16T04:04:11.139Z,66.80
2018-03-16T04:05:11.090Z,69.80
2018-03-16T04:06:11.040Z,70.00
2018-03-16T04:07:11.015Z,73.50
2018-03-16T04:08:10.987Z,67.50
2018-03-16T04:09:10.888Z,71.00
2018-03-16T04:10:10.849Z,71.40
2018-03-16T04:11:10.788Z,70.90
2018-03-16T04:12:10.764Z,72.90
2018-03-16T04:13:10.694Z,72.10
2018-03-16T04:14:10.641Z,80.50
2018-03-16T04:15:10.588Z,80.00
2018-03-16T04:16:10.545Z,80.20
2018-03-16T04:17:10.511Z,76.10
2018-03-16T04:18:10.437Z,78.90
2018-03-16T04:19:10.396Z,78.20
2018-03-16T04:20:10.345Z,80.20
2018-03-16T04:21:10.286Z,77.10
2018-03-16T04:22:10.261Z,76.80
2018-03-16T04:23:10.187Z,87.30
2018-03-16T04:24:10.137Z,83.50
2018-03-16T04:25:10.086Z,77.80
2018-03-16T04:26:10.040Z,86.70
2018-03-16T04:27:10.010Z,76.30
2018-03-16T04:28:09.935Z,79.10
2018-03-16T04:29:09.883Z,85.60
2018-03-16T04:30:09.831Z,79.90
2018-03-16T04:31:09.783Z,83.30
2018-03-16T04:32:09.767Z,82.90
2018-03-16T04:33:09.683Z,87.00
2018-03-16T04:34:09.631Z,84.60
2018-03-16T04:35:09.594Z,90.90
2018-03-16T04:36:09.530Z,82.30
2018-03-16T04:37:09.508Z,79.90
2018-03-16T04:38:09.431Z,87.80
2018-03-16T04:39:09.381Z,97.60
2018-03-16T04:40:09.332Z,85.90
2018-03-16T04:41:09.296Z,89.70
2018-03-16T04:42:09.255Z,87.60
2018-03-16T04:43:09.174Z,91.90
2018-03-16T04:44:09.129Z,95.30
2018-03-16T04:45:09.078Z,88.70
2018-03-16T04:46:09.029Z,87.90
2018-03-16T04:47:09.001Z,89.00
2018-03-16T04:48:08.924Z,91.90
2018-03-16T04:49:08.897Z,87.60
2018-03-16T04:50:08.827Z,96.20
2018-03-16T04:51:08.775Z,92.40
2018-03-16T04:52:08.752Z,92.40
2018-03-16T04:53:08.676Z,95.70
2018-03-16T04:54:08.626Z,91.50
2018-03-16T04:55:08.572Z,89.90
2018-03-16T04:56:08.523Z,94.30
2018-03-16T04:57:08.498Z,88.00
2018-03-16T04:58:08.430Z,94.20
2018-03-16T04:59:08.369Z,98.10
2018-03-16T05:00:08.318Z,100.90
2018-03-16T05:01:08.276Z,84.10
2018-03-16T05:02:08.244Z,100.10
2018-03-16T05:03:08.226Z,94.40
2018-03-16T05:04:08.121Z,94.10
2018-03-16T05:05:08.067Z,92.70
2018-03-16T05:06:08.019Z,98.20
2018-03-16T05:07:07.991Z,99.30
2018-03-16T05:08:07.918Z,89.20
2018-03-16T05:09:07.868Z,91.70
2018-03-16T05:10:07.819Z,107.00
2018-03-16T05:11:07.766Z,100.20
2018-03-16T05:12:07.741Z,103.80
2018-03-16T05:13:07.663Z,96.90
2018-03-16T05:14:07.614Z,116.00
2018-03-16T05:15:07.564Z,91.50
2018-03-16T05:16:07.517Z,94.10
2018-03-16T05:17:07.488Z,108.30
2018-03-16T05:18:07.412Z,98.50
2018-03-16T05:19:07.364Z,98.10
2018-03-16T05:20:07.342Z,116.40
2018-03-16T05:21:07.260Z,108.70
2018-03-16T05:22:07.232Z,101.60
2018-03-16T05:23:07.163Z,102.20
2018-03-16T05:24:07.109Z,104.60
2018-03-16T05:25:07.056Z,99.80
2018-03-16T05:26:07.010Z,103.70
2018-03-16T05:27:06.980Z,119.50
2018-03-16T05:28:06.907Z,109.90
2018-03-16T05:29:06.859Z,98.60
2018-03-16T05:30:06.812Z,110.40
2018-03-16T05:31:06.754Z,96.70
2018-03-16T05:32:06.729Z,93.00
2018-03-16T05:33:06.653Z,112.10
2018-03-16T05:34:06.605Z,110.30
2018-03-16T05:35:06.557Z,94.20
2018-03-16T05:36:06.504Z,96.50
2018-03-16T05:37:06.500Z,115.50
2018-03-16T05:38:06.401Z,94.40
2018-03-16T05:39:06.353Z,115.20
2018-03-16T05:40:06.330Z,99.10
2018-03-16T05:41:06.247Z,106.90
2018-03-16T05:42:06.221Z,114.80
2018-03-16T05:43:06.146Z,109.60
2018-03-16T05:44:06.111Z,108.30
2018-03-16T05:45:06.042Z,103.00
2018-03-16T05:46:05.998Z,111.50
2018-03-16T05:47:05.970Z,108.20
2018-03-16T05:48:05.894Z,100.90
2018-03-16T05:49:05.857Z,109.30
2018-03-16T05:50:05.793Z,117.60
2018-03-16T05:51:05.742Z,113.30
2018-03-16T05:52:05.717Z,104.70
2018-03-16T05:53:05.642Z,116.50
2018-03-16T05:54:05.588Z,112.90
2018-03-16T05:55:05.539Z,101.60
2018-03-16T05:56:05.491Z,105.80
2018-03-16T05:57:05.460Z,103.20
2018-03-16T05:58:05.395Z,106.80
2018-03-16T05:59:05.347Z,117.00
2018-03-16T06:00:05.291Z,113.80
2018-03-16T06:01:05.234Z,107.80
2018-03-16T06:02:05.212Z,122.10
2018-03-16T06:03:05.134Z,103.30
2018-03-16T06:04:05.083Z,98.00
2018-03-16T06:05:05.033Z,101.10
2018-03-16T06:06:04.982Z,111.20
2018-03-16T06:07:04.956Z,120.60
2018-03-16T06:08:04.884Z,106.20
2018-03-16T06:09:04.830Z,108.70
2018-03-16T06:10:04.783Z,123.60
2018-03-16T06:11:04.729Z,104.20
2018-03-16T06:12:04.707Z,97.50
2018-03-16T06:13:04.628Z,92.00
2018-03-16T06:14:04.579Z,108.10
2018-03-16T06:15:04.528Z,99.30
2018-03-16T06:16:04.477Z,99.20
2018-03-16T06:17:04.448Z,96.40
2018-03-16T06:18:04.378Z,102.90
2018-03-16T06:19:04.322Z,99.00
2018-03-16T06:20:04.277Z,94.10
2018-03-16T06:21:04.221Z,92.30
2018-03-16T06:22:04.197Z,104.50
2018-03-16T06:23:04.121Z,112.60
2018-03-16T06:24:04.074Z,91.20
2018-03-16T06:25:04.019Z,105.20
2018-03-16T06:26:03.970Z,99.70
2018-03-16T06:27:03.948Z,100.20
2018-03-16T06:28:03.868Z,107.30
2018-03-16T06:29:03.817Z,96.10
2018-03-16T06:30:03.778Z,105.10
2018-03-16T06:31:03.716Z,98.30
2018-03-16T06:32:03.691Z,94.80
2018-03-16T06:33:03.612Z,88.70
2018-03-16T06:34:03.567Z,102.60
2018-03-16T06:35:03.513Z,94.40
2018-03-16T06:36:03.465Z,83.80
2018-03-16T06:37:03.434Z,86.70
2018-03-16T06:38:03.360Z,92.00
2018-03-16T06:39:03.310Z,84.80
2018-03-16T06:40:03.264Z,91.40
2018-03-16T06:41:03.209Z,114.60
2018-03-16T06:42:03.182Z,117.20
2018-03-16T06:43:03.111Z,109.10
2018-03-16T06:44:03.060Z,101.80
2018-03-16T06:45:03.141Z,89.40
2018-03-16T06:46:02.957Z,95.10
2018-03-16T06:47:02.930Z,101.20
2018-03-16T06:48:02.858Z,85.10
2018-03-16T06:49:02.826Z,85.70
2018-03-16T06:50:02.755Z,95.50
2018-03-16T06:51:02.701Z,84.30
2018-03-16T06:52:02.673Z,97.90
2018-03-16T06:53:02.599Z,91.80
2018-03-16T06:54:02.560Z,91.50
2018-03-16T06:55:02.501Z,84.90
2018-03-16T06:56:02.446Z,77.10
2018-03-16T06:57:02.419Z,84.90
2018-03-16T06:58:02.347Z,77.60
2018-03-16T06:59:02.297Z,81.70
2018-03-16T07:00:02.243Z,76.00
2018-03-16T07:01:02.194Z,76.10
2018-03-16T07:02:02.174Z,74.40
2018-03-16T07:03:02.091Z,78.70
2018-03-16T07:04:02.085Z,72.10
2018-03-16T07:05:01.990Z,75.00
2018-03-16T07:06:01.942Z,72.10
2018-03-16T07:07:01.893Z,78.50
2018-03-16T07:08:01.864Z,74.90
2018-03-16T07:09:01.786Z,75.20
2018-03-16T07:10:01.735Z,76.60
2018-03-16T07:11:01.691Z,83.00
2018-03-16T07:12:01.636Z,81.00
2018-03-16T07:13:01.614Z,82.70
2018-03-16T07:14:01.531Z,82.60
2018-03-16T07:15:01.482Z,81.30
2018-03-16T07:16:01.431Z,92.80
2018-03-16T07:17:01.390Z,98.50
2018-03-16T07:18:01.391Z,86.10
2018-03-16T07:19:01.277Z,86.00
2018-03-16T07:20:01.224Z,89.20
2018-03-16T07:21:01.174Z,76.80
2018-03-16T07:22:01.122Z,96.30
2018-03-16T07:23:01.100Z,94.00
2018-03-16T07:24:01.027Z,84.30
2018-03-16T07:25:00.980Z,81.70
2018-03-16T07:26:00.918Z,88.00
2018-03-16T07:27:00.894Z,74.00
2018-03-16T07:28:00.844Z,78.80
2018-03-16T07:29:00.766Z,81.80
2018-03-16T07:30:00.737Z,79.60
2018-03-16T07:31:00.670Z,67.30
2018-03-16T07:32:00.619Z,85.30
2018-03-16T07:33:00.586Z,77.50
2018-03-16T07:34:00.511Z,82.10
2018-03-16T07:35:00.497Z,77.30
2018-03-16T07:36:00.408Z,87.20
2018-03-16T07:37:00.358Z,69.30
2018-03-16T07:38:00.331Z,71.50
2018-03-16T07:39:00.257Z,70.30
2018-03-16T07:40:00.207Z,68.00
2018-03-16T07:41:00.159Z,64.80
2018-03-16T07:42:00.107Z,65.20
2018-03-16T07:43:00.078Z,70.40
2018-03-16T07:44:00.008Z,64.50
2018-03-16T07:44:59.951Z,72.20
2018-03-16T07:45:59.901Z,74.50
2018-03-16T07:46:59.873Z,64.90
2018-03-16T07:47:59.823Z,70.30
2018-03-16T07:48:59.747Z,62.10
2018-03-16T07:49:59.696Z,57.30
2018-03-16T07:50:59.646Z,72.90
2018-03-16T07:51:59.595Z,64.50
2018-03-16T07:52:59.568Z,72.10
2018-03-16T07:53:59.521Z,63.60
2018-03-16T07:54:59.445Z,71.30
2018-03-16T07:55:59.393Z,65.50
2018-03-16T07:56:59.339Z,64.90
2018-03-16T07:57:59.362Z,72.40
2018-03-16T07:58:59.236Z,61.90
2018-03-16T07:59:59.188Z,69.00
2018-03-16T08:00:59.137Z,65.70
2018-03-16T08:01:59.084Z,57.40
2018-03-16T08:02:59.061Z,64.60
2018-03-16T08:03:59.052Z,61.00
2018-03-16T08:04:58.934Z,56.70
2018-03-16T08:05:58.884Z,59.20
2018-03-16T08:06:58.835Z,60.50
2018-03-16T08:07:58.804Z,62.60
2018-03-16T08:08:58.726Z,67.70
2018-03-16T08:09:58.677Z,53.60
2018-03-16T08:10:58.626Z,55.40
2018-03-16T08:11:58.577Z,66.80
2018-03-16T08:12:58.563Z,57.90
2018-03-16T08:13:58.472Z,62.20
2018-03-16T08:14:58.424Z,57.50
2018-03-16T08:15:58.368Z,54.30
2018-03-16T08:16:58.319Z,63.50
2018-03-16T08:17:58.289Z,58.60
2018-03-16T08:18:58.223Z,51.50
2018-03-16T08:19:58.166Z,67.10
2018-03-16T08:20:58.118Z,54.20
2018-03-16T08:21:58.062Z,58.10
2018-03-16T08:22:58.037Z,60.00
2018-03-16T08:23:57.961Z,53.00
2018-03-16T08:24:57.909Z,68.20
2018-03-16T08:25:57.861Z,55.90
2018-03-16T08:26:57.808Z,54.80
2018-03-16T08:27:57.778Z,66.00
2018-03-16T08:28:57.705Z,56.20
2018-03-16T08:29:57.653Z,65.00
2018-03-16T08:30:57.601Z,60.90
2018-03-16T08:31:57.557Z,55.30
2018-03-16T08:32:57.525Z,56.70
2018-03-16T08:33:57.456Z,61.00
2018-03-16T08:34:57.397Z,59.50
2018-03-16T08:35:57.343Z,53.20
2018-03-16T08:36:57.294Z,81.50
2018-03-16T08:37:57.268Z,57.10
2018-03-16T08:38:57.190Z,63.70
2018-03-16T08:39:57.144Z,53.30
2018-03-16T08:40:57.089Z,69.40
2018-03-16T08:41:57.040Z,61.10
2018-03-16T08:42:57.015Z,52.50
2018-03-16T08:43:56.937Z,53.60
2018-03-16T08:44:56.883Z,55.50
2018-03-16T08:45:56.871Z,68.10
2018-03-16T08:46:56.782Z,53.70
2018-03-16T08:47:56.755Z,49.40
2018-03-16T08:48:56.678Z,61.90
2018-03-16T08:49:56.630Z,51.50
2018-03-16T08:50:56.578Z,52.70
2018-03-16T08:51:56.530Z,46.50
2018-03-16T08:52:56.500Z,47.20
2018-03-16T08:53:56.420Z,48.70
2018-03-16T08:54:56.369Z,62.40
2018-03-16T08:55:56.322Z,58.60
2018-03-16T08:56:56.268Z,51.70
2018-03-16T08:57:56.240Z,51.60
2018-03-16T08:58:56.167Z,49.90
2018-03-16T08:59:56.116Z,52.70
2018-03-16T09:00:56.062Z,49.90
2018-03-16T09:01:56.012Z,46.00
2018-03-16T09:02:56.038Z,53.20
2018-03-16T09:03:55.907Z,50.10
2018-03-16T09:04:55.874Z,55.90
2018-03-16T09:05:55.808Z,53.00
2018-03-16T09:06:55.755Z,51.40
2018-03-16T09:07:55.762Z,52.60
2018-03-16T09:08:55.650Z,51.70
2018-03-16T09:09:55.600Z,43.10
2018-03-16T09:10:55.550Z,49.40
2018-03-16T09:11:55.500Z,47.40
2018-03-16T09:12:55.468Z,48.50
2018-03-16T09:13:55.400Z,47.80
2018-03-16T09:14:55.344Z,54.90
2018-03-16T09:15:55.299Z,44.80
2018-03-16T09:16:55.244Z,52.20
2018-03-16T09:17:55.214Z,43.00
2018-03-16T09:18:55.139Z,44.60
2018-03-16T09:19:55.102Z,37.00
2018-03-16T09:20:55.036Z,40.50
2018-03-16T09:21:54.985Z,39.40
2018-03-16T09:22:54.957Z,41.80
2018-03-16T09:23:54.893Z,40.90
2018-03-16T09:24:54.830Z,42.50
2018-03-16T09:25:54.778Z,39.10
2018-03-16T09:26:54.730Z,40.20
2018-03-16T09:27:54.713Z,46.90
2018-03-16T09:28:54.626Z,40.40
2018-03-16T09:29:54.580Z,36.50
2018-03-16T09:30:54.528Z,40.80
2018-03-16T09:31:54.474Z,32.30
2018-03-16T09:32:54.444Z,37.00
2018-03-16T09:33:54.373Z,36.20
2018-03-16T09:34:54.350Z,37.60
2018-03-16T09:35:54.268Z,33.90
2018-03-16T09:36:54.220Z,35.10
2018-03-16T09:37:54.192Z,37.50
2018-03-16T09:38:54.112Z,33.30
2018-03-16T09:39:54.069Z,35.60
2018-03-16T09:40:54.013Z,35.40
2018-03-16T09:41:53.962Z,35.50
2018-03-16T09:42:53.930Z,34.60
2018-03-16T09:43:53.861Z,32.60
2018-03-16T09:44:53.806Z,35.50
2018-03-16T09:45:53.759Z,34.30
2018-03-16T09:46:53.708Z,31.90
2018-03-16T09:47:53.681Z,33.60
2018-03-16T09:48:53.612Z,34.20
2018-03-16T09:49:53.562Z,33.90
2018-03-16T09:50:53.504Z,30.20
2018-03-16T09:51:53.451Z,33.00
2018-03-16T09:52:53.456Z,31.20
2018-03-16T09:53:53.346Z,31.60
2018-03-16T09:54:53.296Z,30.70
2018-03-16T09:55:53.245Z,30.30
2018-03-16T09:56:53.193Z,28.60
2018-03-16T09:57:53.166Z,30.10
2018-03-16T09:58:53.088Z,29.90
2018-03-16T09:59:53.039Z,34.00
2018-03-16T10:00:52.989Z,30.40
2018-03-16T10:01:52.936Z,26.80
2018-03-16T10:02:52.914Z,31.10
2018-03-16T10:03:52.837Z,31.30
2018-03-16T10:04:52.785Z,35.20
2018-03-16T10:05:52.733Z,29.00
2018-03-16T10:06:52.687Z,29.10
2018-03-16T10:07:52.636Z,25.70
2018-03-16T10:08:52.603Z,30.50
2018-03-16T10:09:52.535Z,26.90
2018-03-16T10:10:52.481Z,28.20
2018-03-16T10:11:52.426Z,29.00
2018-03-16T10:12:52.386Z,29.70
2018-03-16T10:13:52.356Z,28.70
2018-03-16T10:14:52.278Z,27.70
2018-03-16T10:15:52.223Z,26.60
2018-03-16T10:16:52.177Z,26.30
2018-03-16T10:17:52.140Z,26.90
2018-03-16T10:18:52.107Z,28.90
2018-03-16T10:19:52.021Z,27.90
2018-03-16T10:20:51.976Z,25.40
2018-03-16T10:21:51.918Z,24.90
2018-03-16T10:22:51.869Z,25.20
2018-03-16T10:23:51.840Z,25.70
2018-03-16T10:24:51.766Z,25.10
2018-03-16T10:25:51.733Z,26.00
2018-03-16T10:26:51.668Z,22.50
2018-03-16T10:27:51.631Z,25.60
2018-03-16T10:28:51.589Z,25.40
2018-03-16T10:29:51.517Z,23.80
2018-03-16T10:30:51.463Z,22.80
2018-03-16T10:31:51.412Z,23.40
2018-03-16T10:32:51.363Z,26.20
2018-03-16T10:33:51.327Z,24.00
2018-03-16T10:34:51.254Z,24.10
2018-03-16T10:35:51.207Z,23.90
2018-03-16T10:36:51.157Z,26.00
2018-03-16T10:37:51.122Z,23.10
2018-03-16T10:38:51.076Z,23.50
2018-03-16T10:39:51.006Z,20.50
2018-03-16T10:40:50.955Z,21.90
2018-03-16T10:41:50.904Z,21.10
2018-03-16T10:42:50.852Z,21.10
2018-03-16T10:43:50.826Z,21.80
2018-03-16T10:44:50.748Z,21.70
2018-03-16T10:45:50.697Z,21.80
2018-03-16T10:46:50.648Z,19.60
2018-03-16T10:47:50.598Z,23.70
2018-03-16T10:48:50.613Z,20.10
2018-03-16T10:49:50.496Z,21.30
2018-03-16T10:50:50.444Z,22.90
2018-03-16T10:51:50.393Z,21.20
2018-03-16T10:52:50.343Z,18.80
2018-03-16T10:53:50.318Z,20.70
2018-03-16T10:54:50.243Z,19.90
2018-03-16T10:55:50.191Z,19.30
2018-03-16T10:56:50.137Z,20.40
2018-03-16T10:57:50.092Z,18.70
2018-03-16T10:58:50.063Z,20.90
2018-03-16T10:59:49.988Z,20.60
2018-03-16T11:00:49.936Z,22.30
2018-03-16T11:01:49.884Z,19.30
2018-03-16T11:02:49.835Z,20.50
2018-03-16T11:03:49.823Z,20.50
2018-03-16T11:04:49.734Z,19.80
2018-03-16T11:05:49.683Z,18.10
2018-03-16T11:06:49.632Z,20.10
2018-03-16T11:07:49.583Z,20.60
2018-03-16T11:08:49.552Z,21.30
2018-03-16T11:09:49.481Z,18.80
2018-03-16T11:10:49.451Z,19.00
2018-03-16T11:11:49.381Z,20.30
2018-03-16T11:12:49.327Z,21.00
2018-03-16T11:13:49.300Z,17.90
2018-03-16T11:14:49.231Z,18.70
2018-03-16T11:15:49.175Z,19.00
2018-03-16T11:16:49.137Z,19.50
2018-03-16T11:17:49.072Z,18.90
2018-03-16T11:18:49.048Z,19.70
2018-03-16T11:19:48.975Z,20.40
2018-03-16T11:20:48.923Z,20.40
2018-03-16T11:21:48.871Z,20.60
2018-03-16T11:22:48.823Z,22.20
2018-03-16T11:23:48.795Z,20.90
2018-03-16T11:24:48.720Z,20.20
2018-03-16T11:25:48.669Z,18.90
2018-03-16T11:26:48.618Z,19.80
2018-03-16T11:27:48.572Z,20.20
2018-03-16T11:28:48.542Z,22.70
2018-03-16T11:29:48.468Z,20.30
2018-03-16T11:30:48.422Z,20.30
2018-03-16T11:31:48.370Z,21.00
2018-03-16T11:32:48.315Z,20.40
2018-03-16T11:33:48.291Z,20.80
2018-03-16T11:34:48.217Z,20.40
2018-03-16T11:35:48.166Z,23.90
2018-03-16T11:36:48.112Z,19.60
2018-03-16T11:37:48.062Z,20.60
2018-03-16T11:38:48.038Z,20.90
2018-03-16T11:39:47.965Z,22.40
2018-03-16T11:40:47.913Z,21.20
2018-03-16T11:41:47.865Z,23.40
2018-03-16T11:42:47.811Z,20.40
2018-03-16T11:43:47.797Z,20.10
2018-03-16T11:44:47.711Z,20.50
2018-03-16T11:45:47.660Z,20.10
2018-03-16T11:46:47.610Z,21.90
2018-03-16T11:47:47.558Z,22.00
2018-03-16T11:48:47.533Z,21.00
2018-03-16T11:49:47.456Z,22.30
2018-03-16T11:50:47.408Z,21.20
2018-03-16T11:51:47.354Z,20.30
2018-03-16T11:52:47.303Z,21.60
2018-03-16T11:53:47.278Z,21.90
2018-03-16T11:54:47.204Z,21.60
2018-03-16T11:55:47.154Z,21.60
2018-03-16T11:56:47.101Z,22.20
2018-03-16T11:57:47.052Z,21.80
2018-03-16T11:58:47.022Z,21.60
2018-03-16T11:59:46.948Z,22.00
2018-03-16T12:00:46.897Z,20.50
2018-03-16T12:01:46.851Z,20.90
2018-03-16T12:02:46.794Z,20.40
2018-03-16T12:03:46.767Z,19.30
2018-03-16T12:04:46.692Z,21.70
2018-03-16T12:05:46.642Z,21.70
2018-03-16T12:06:46.591Z,19.40
2018-03-16T12:07:46.543Z,20.60
2018-03-16T12:08:46.516Z,22.40
2018-03-16T12:09:46.440Z,21.10
2018-03-16T12:10:46.450Z,21.20
2018-03-16T12:11:46.337Z,21.20
2018-03-16T12:12:46.291Z,21.10
2018-03-16T12:13:46.263Z,20.40
2018-03-16T12:14:46.192Z,19.00
2018-03-16T12:15:46.136Z,19.00
2018-03-16T12:16:46.088Z,19.80
2018-03-16T12:17:46.037Z,18.60
2018-03-16T12:18:46.007Z,19.10
2018-03-16T12:19:45.936Z,19.90
2018-03-16T12:20:45.883Z,19.70
2018-03-16T12:21:45.832Z,20.70
2018-03-16T12:22:45.779Z,18.50
2018-03-16T12:23:45.756Z,18.30
2018-03-16T12:24:45.679Z,20.40
2018-03-16T12:25:45.630Z,18.80
2018-03-16T12:26:45.576Z,18.60
2018-03-16T12:27:45.529Z,21.60
2018-03-16T12:28:49.888Z,20.00
2018-03-16T12:29:45.423Z,20.40
2018-03-16T12:30:45.377Z,22.50
2018-03-16T12:31:45.327Z,18.60
2018-03-16T12:32:45.268Z,20.00
2018-03-16T12:33:45.244Z,19.00
2018-03-16T12:34:45.173Z,19.40
2018-03-16T12:35:45.116Z,18.20
2018-03-16T12:36:45.068Z,21.40
2018-03-16T12:37:45.018Z,19.80
2018-03-16T12:38:44.990Z,19.90
2018-03-16T12:39:44.915Z,20.30
2018-03-16T12:40:44.865Z,21.50
2018-03-16T12:41:44.813Z,19.70
2018-03-16T12:42:44.762Z,19.60
2018-03-16T12:43:44.708Z,19.60
2018-03-16T12:44:44.687Z,19.80
2018-03-16T12:45:44.607Z,20.00
2018-03-16T12:46:44.555Z,20.90
2018-03-16T12:47:44.505Z,20.20
2018-03-16T12:48:44.449Z,19.80
2018-03-16T12:49:44.420Z,19.60